Time;durP1;ratioP1;P1;durP2;ratioP2;P2;SDS_P1;SDS_P2;PMS_P1;PMS_P2;Temp;Humidity;BMP_temperature;BMP_pressure;BME280_temperature;BME280_humidity;BME280_pressure;Samples;Min_cycle;Max_cycle;Signal;HPM_P1;HPM_P2
2021/10/04 00:01:11;;;;;;;0.75;0.75;;;17.50;90.20;;;;;;5094276;28;20043;-61
2021/10/04 00:03:37;;;;;;;0.52;0.50;;;17.50;90.20;;;;;;5094344;28;20036;-60
2021/10/04 00:06:03;;;;;;;0.65;0.52;;;17.50;90.20;;;;;;5093921;28;20115;-59
2021/10/04 00:08:29;;;;;;;0.60;0.60;;;17.50;90.20;;;;;;5093561;28;20124;-57
2021/10/04 00:10:54;;;;;;;1.15;0.70;;;17.50;90.20;;;;;;5094627;28;20495;-56
2021/10/04 00:13:20;;;;;;;1.10;0.80;;;17.50;90.20;;;;;;5094314;28;20463;-56
2021/10/04 00:15:46;;;;;;;0.90;0.57;;;17.50;90.20;;;;;;5094782;28;20037;-59
2021/10/04 00:18:12;;;;;;;0.85;0.68;;;17.50;90.20;;;;;;5094163;28;20051;-61
2021/10/04 00:20:38;;;;;;;1.00;0.90;;;17.50;90.20;;;;;;5094195;28;20036;-60
2021/10/04 00:23:05;;;;;;;0.98;0.70;;;17.50;90.20;;;;;;5094355;28;20060;-58
2021/10/04 00:25:31;;;;;;;0.95;0.68;;;17.50;90.20;;;;;;5093207;28;20090;-57
2021/10/04 00:27:57;;;;;;;0.70;0.70;;;17.50;90.20;;;;;;5094032;28;20040;-59
2021/10/04 00:30:23;;;;;;;0.90;0.70;;;17.50;90.20;;;;;;5092274;28;20093;-60
2021/10/04 00:32:51;;;;;;;0.68;0.68;;;17.50;90.20;;;;;;5093675;28;20050;-59
2021/10/04 00:35:20;;;;;;;0.73;0.60;;;17.50;90.20;;;;;;5093916;28;20089;-57
2021/10/04 00:37:46;;;;;;;0.82;0.60;;;17.50;90.10;;;;;;5093167;28;20499;-57
2021/10/04 00:40:15;;;;;;;0.68;0.68;;;17.50;90.20;;;;;;5091120;28;20559;-60
2021/10/04 00:42:42;;;;;;;0.93;0.70;;;17.50;90.10;;;;;;5093572;28;20093;-57
2021/10/04 00:45:09;;;;;;;1.00;0.88;;;17.50;90.10;;;;;;5093540;28;20495;-56
2021/10/04 00:47:35;;;;;;;0.50;0.47;;;17.50;90.10;;;;;;5093760;28;20093;-59
2021/10/04 00:50:02;;;;;;;1.05;0.70;;;17.50;90.10;;;;;;5093494;28;20054;-60
2021/10/04 00:52:27;;;;;;;0.70;0.70;;;17.50;90.10;;;;;;5093601;28;20048;-58
2021/10/04 00:54:53;;;;;;;0.95;0.75;;;17.50;90.10;;;;;;5093138;28;20047;-61
2021/10/04 00:57:19;;;;;;;0.63;0.60;;;17.50;90.10;;;;;;5092372;28;20472;-57
2021/10/04 00:59:45;;;;;;;1.48;0.60;;;17.50;90.10;;;;;;5093466;28;20142;-57
2021/10/04 01:02:11;;;;;;;0.90;0.50;;;17.50;90.10;;;;;;5093261;28;20170;-59
2021/10/04 01:04:37;;;;;;;0.43;0.43;;;17.50;90.00;;;;;;5093365;28;20036;-60
2021/10/04 01:07:03;;;;;;;0.57;0.52;;;17.50;90.00;;;;;;5092567;28;20040;-59
2021/10/04 01:09:29;;;;;;;1.08;0.80;;;17.50;90.00;;;;;;5092951;28;20519;-60
2021/10/04 01:11:57;;;;;;;1.52;0.60;;;17.50;90.00;;;;;;5092014;28;20052;-59
2021/10/04 01:14:24;;;;;;;1.00;0.80;;;17.50;90.00;;;;;;5091679;28;20181;-52
2021/10/04 01:16:51;;;;;;;0.90;0.80;;;17.50;90.00;;;;;;5093509;28;20054;-59
2021/10/04 01:19:17;;;;;;;0.80;0.80;;;17.40;90.00;;;;;;5072592;28;20479;-60
2021/10/04 01:21:43;;;;;;;1.13;0.90;;;17.40;90.00;;;;;;5087060;28;20047;-57
2021/10/04 01:24:10;;;;;;;0.40;0.40;;;17.50;90.00;;;;;;5092224;28;20052;-58
2021/10/04 01:26:36;;;;;;;0.73;0.68;;;17.50;90.00;;;;;;5092552;28;20043;-60
2021/10/04 01:29:03;;;;;;;0.63;0.50;;;17.50;90.00;;;;;;5092432;28;20046;-58
2021/10/04 01:31:29;;;;;;;0.50;0.50;;;17.50;90.00;;;;;;5092741;28;20040;-60
2021/10/04 01:33:56;;;;;;;0.70;0.50;;;17.50;90.00;;;;;;5090480;28;20044;-60
2021/10/04 01:36:27;;;;;;;0.80;0.70;;;17.50;90.00;;;;;;5092269;28;20050;-58
2021/10/04 01:38:56;;;;;;;2.15;0.70;;;17.50;89.90;;;;;;5092405;28;20055;-58
2021/10/04 01:41:22;;;;;;;0.63;0.45;;;17.50;89.90;;;;;;5088263;28;20154;-57
2021/10/04 01:43:48;;;;;;;0.50;0.50;;;17.50;89.90;;;;;;5091937;28;20924;-60
2021/10/04 01:46:14;;;;;;;0.95;0.63;;;17.40;89.80;;;;;;5092723;28;20093;-59
2021/10/04 01:48:40;;;;;;;1.00;0.77;;;17.50;90.00;;;;;;5092070;28;20403;-60
2021/10/04 01:51:06;;;;;;;1.10;0.80;;;17.50;89.80;;;;;;5092070;28;20040;-59
2021/10/04 01:53:32;;;;;;;0.63;0.63;;;17.50;90.20;;;;;;5092111;28;20097;-60
2021/10/04 01:55:57;;;;;;;0.63;0.63;;;17.50;89.80;;;;;;5092046;28;20096;-61
2021/10/04 01:58:23;;;;;;;0.95;0.70;;;17.40;89.80;;;;;;5092141;28;20484;-60
2021/10/04 02:00:49;;;;;;;0.55;0.55;;;17.50;89.80;;;;;;5091896;28;20046;-60
2021/10/04 02:03:15;;;;;;;0.68;0.55;;;17.40;89.80;;;;;;5092023;28;20158;-61
2021/10/04 02:05:41;;;;;;;0.60;0.52;;;17.50;89.80;;;;;;5091660;28;20052;-60
2021/10/04 02:08:06;;;;;;;0.60;0.45;;;17.50;89.80;;;;;;5091193;28;20106;-60
2021/10/04 02:10:38;;;;;;;0.52;0.50;;;17.50;89.80;;;;;;5091736;28;20031;-60
2021/10/04 02:13:07;;;;;;;0.90;0.70;;;17.50;89.80;;;;;;5090657;28;20060;-59
2021/10/04 02:15:33;;;;;;;0.57;0.55;;;17.40;89.70;;;;;;5091382;28;20108;-59
2021/10/04 02:17:59;;;;;;;0.60;0.60;;;17.40;89.70;;;;;;5092398;28;20452;-60
2021/10/04 02:20:28;;;;;;;0.55;0.43;;;17.50;89.80;;;;;;5091614;28;20115;-60
2021/10/04 02:22:55;;;;;;;1.10;0.50;;;17.50;89.80;;;;;;5091969;28;20409;-60
2021/10/04 02:25:22;;;;;;;0.50;0.50;;;17.50;89.80;;;;;;5091347;28;20043;-59
2021/10/04 02:27:48;;;;;;;0.40;0.40;;;17.50;89.50;;;;;;5091919;28;20491;-60
2021/10/04 02:30:19;;;;;;;0.68;0.55;;;17.50;89.60;;;;;;5092482;28;20043;-60
2021/10/04 02:32:45;;;;;;;0.85;0.57;;;17.50;89.70;;;;;;5090014;28;20055;-60
2021/10/04 02:35:11;;;;;;;2.53;0.77;;;17.50;89.70;;;;;;5091277;28;20081;-58
2021/10/04 02:37:37;;;;;;;0.60;0.60;;;17.40;89.60;;;;;;5091784;28;20349;-59
2021/10/04 02:40:06;;;;;;;0.57;0.57;;;17.50;89.60;;;;;;5091342;28;20085;-59
2021/10/04 02:42:32;;;;;;;0.70;0.60;;;17.50;89.60;;;;;;5091062;28;20040;-60
2021/10/04 02:44:57;;;;;;;0.70;0.60;;;17.50;89.60;;;;;;5091761;28;20036;-60
2021/10/04 02:47:23;;;;;;;0.50;0.47;;;17.50;89.60;;;;;;5090938;28;20502;-57
2021/10/04 02:49:49;;;;;;;0.90;0.50;;;17.50;89.60;;;;;;5091717;28;20051;-60
2021/10/04 02:52:17;;;;;;;0.70;0.68;;;17.50;90.00;;;;;;5091833;28;20157;-59
2021/10/04 02:54:44;;;;;;;0.95;0.65;;;17.50;89.60;;;;;;5091635;28;20040;-59
2021/10/04 02:57:09;;;;;;;0.63;0.63;;;17.50;89.60;;;;;;5091217;28;20081;-59
2021/10/04 02:59:35;;;;;;;1.65;0.85;;;17.50;89.60;;;;;;5091825;28;20040;-60
2021/10/04 03:02:01;;;;;;;0.57;0.57;;;17.40;89.50;;;;;;5091578;28;20036;-60
2021/10/04 03:04:26;;;;;;;0.57;0.45;;;17.50;89.50;;;;;;5090545;28;20083;-60
2021/10/04 03:06:52;;;;;;;1.08;0.40;;;17.40;89.60;;;;;;5090998;28;20047;-58
2021/10/04 03:09:18;;;;;;;0.55;0.50;;;17.50;89.60;;;;;;5078870;28;20032;-59
2021/10/04 03:11:43;;;;;;;0.70;0.55;;;17.50;89.50;;;;;;5090076;28;20213;-59
2021/10/04 03:14:09;;;;;;;0.75;0.75;;;17.50;89.40;;;;;;5090080;28;20044;-59
2021/10/04 03:16:35;;;;;;;1.00;0.47;;;17.50;89.40;;;;;;5091334;28;20079;-59
2021/10/04 03:19:01;;;;;;;0.73;0.63;;;17.50;89.40;;;;;;5092049;28;20040;-60
2021/10/04 03:21:26;;;;;;;0.43;0.43;;;17.50;89.40;;;;;;5094134;28;20059;-60
2021/10/04 03:23:52;;;;;;;0.82;0.65;;;17.50;89.40;;;;;;5093620;28;20036;-57
2021/10/04 03:26:21;;;;;;;1.05;0.70;;;17.50;89.40;;;;;;5095314;28;20039;-57
2021/10/04 03:28:46;;;;;;;0.82;0.73;;;17.50;89.30;;;;;;5094516;28;20101;-59
2021/10/04 03:31:12;;;;;;;0.75;0.70;;;17.40;89.30;;;;;;5095123;28;20040;-59
2021/10/04 03:33:38;;;;;;;0.50;0.50;;;17.50;89.30;;;;;;5093556;28;20056;-59
2021/10/04 03:36:04;;;;;;;1.50;0.70;;;17.50;89.40;;;;;;5094300;28;20304;-58
2021/10/04 03:38:29;;;;;;;0.60;0.60;;;17.40;89.30;;;;;;5094721;28;20087;-60
2021/10/04 03:40:55;;;;;;;0.75;0.68;;;17.50;89.40;;;;;;5094464;28;20044;-59
2021/10/04 03:43:22;;;;;;;0.50;0.50;;;17.40;89.30;;;;;;5094256;28;20068;-60
2021/10/04 03:45:48;;;;;;;0.52;0.52;;;17.50;89.40;;;;;;5093416;28;20048;-60
2021/10/04 03:48:13;;;;;;;0.57;0.40;;;17.50;89.30;;;;;;5094715;28;20055;-59
2021/10/04 03:50:39;;;;;;;0.60;0.60;;;17.50;89.30;;;;;;5093813;28;20047;-58
2021/10/04 03:53:05;;;;;;;0.40;0.40;;;17.50;89.30;;;;;;5094634;28;20040;-59
2021/10/04 03:55:30;;;;;;;0.70;0.70;;;17.50;89.30;;;;;;5094265;28;20138;-57
2021/10/04 03:57:56;;;;;;;0.60;0.60;;;17.50;89.30;;;;;;5094722;28;20082;-54
2021/10/04 04:00:24;;;;;;;0.45;0.45;;;17.40;89.10;;;;;;5093934;28;20044;-59
2021/10/04 04:02:50;;;;;;;0.70;0.70;;;17.50;89.20;;;;;;5094548;28;20036;-59
2021/10/04 04:05:16;;;;;;;1.50;0.70;;;17.50;89.20;;;;;;5094103;28;20028;-58
2021/10/04 04:07:42;;;;;;;0.50;0.50;;;17.40;89.20;;;;;;5093853;28;20067;-58
2021/10/04 04:10:09;;;;;;;0.82;0.70;;;17.50;89.10;;;;;;5092271;28;20144;-57
2021/10/04 04:12:36;;;;;;;0.50;0.50;;;17.50;89.20;;;;;;5093555;28;20040;-59
2021/10/04 04:15:02;;;;;;;1.55;0.73;;;17.50;89.20;;;;;;5094430;28;20043;-61
2021/10/04 04:17:28;;;;;;;0.80;0.60;;;17.50;89.10;;;;;;5094199;28;20123;-60
2021/10/04 04:19:53;;;;;;;0.55;0.55;;;17.40;89.10;;;;;;5094489;28;20123;-59
2021/10/04 04:22:19;;;;;;;0.60;0.60;;;17.40;89.10;;;;;;5093528;28;20051;-60
2021/10/04 04:24:45;;;;;;;0.50;0.50;;;17.50;89.20;;;;;;5092395;28;20105;-60
2021/10/04 04:27:11;;;;;;;0.85;0.47;;;17.50;89.10;;;;;;5094418;28;20052;-59
2021/10/04 04:29:38;;;;;;;0.70;0.70;;;17.40;89.10;;;;;;5093674;28;20028;-60
2021/10/04 04:32:09;;;;;;;0.55;0.50;;;17.50;89.20;;;;;;5093260;28;20391;-60
2021/10/04 04:34:35;;;;;;;1.13;0.43;;;17.50;89.00;;;;;;5094011;28;20043;-59
2021/10/04 04:37:01;;;;;;;0.50;0.50;;;17.40;89.00;;;;;;5093717;28;20441;-60
2021/10/04 04:39:27;;;;;;;1.23;0.55;;;17.40;89.00;;;;;;5093849;28;20469;-59
2021/10/04 04:41:54;;;;;;;0.50;0.50;;;17.40;89.00;;;;;;5093617;28;20067;-59
2021/10/04 04:44:21;;;;;;;0.70;0.57;;;17.40;89.00;;;;;;5091938;28;20044;-58
2021/10/04 04:46:47;;;;;;;2.00;0.73;;;17.50;89.10;;;;;;5093582;28;20127;-60
2021/10/04 04:49:13;;;;;;;0.95;0.60;;;17.50;89.10;;;;;;5093796;28;20084;-57
2021/10/04 04:51:39;;;;;;;0.63;0.40;;;17.40;89.10;;;;;;5091944;28;20080;-59
2021/10/04 04:54:04;;;;;;;0.50;0.50;;;17.40;89.00;;;;;;5092807;28;20049;-60
2021/10/04 04:56:30;;;;;;;1.45;0.63;;;17.50;89.00;;;;;;5093450;28;20488;-60
2021/10/04 04:58:56;;;;;;;0.43;0.43;;;17.40;89.00;;;;;;5093055;28;20040;-57
2021/10/04 05:01:22;;;;;;;0.50;0.50;;;17.40;89.00;;;;;;5093633;28;20074;-59
2021/10/04 05:03:47;;;;;;;0.70;0.50;;;17.50;89.10;;;;;;5092041;28;20056;-59
2021/10/04 05:06:13;;;;;;;0.63;0.60;;;17.40;89.00;;;;;;5093213;28;20390;-59
2021/10/04 05:08:38;;;;;;;0.80;0.50;;;17.40;88.90;;;;;;5093122;28;20040;-59
2021/10/04 05:11:04;;;;;;;0.65;0.40;;;17.40;88.90;;;;;;5093214;28;20084;-59
2021/10/04 05:13:30;;;;;;;0.52;0.50;;;17.40;88.80;;;;;;5090945;28;20063;-60
2021/10/04 05:15:56;;;;;;;0.45;0.40;;;17.40;88.80;;;;;;5092737;28;20396;-60
2021/10/04 05:18:21;;;;;;;0.68;0.55;;;17.40;88.80;;;;;;5093085;28;20058;-57
2021/10/04 05:20:47;;;;;;;0.90;0.40;;;17.40;88.80;;;;;;5093123;28;20123;-59
2021/10/04 05:23:13;;;;;;;0.50;0.50;;;17.40;88.80;;;;;;5092793;28;20151;-59
2021/10/04 05:25:39;;;;;;;1.10;0.50;;;17.40;88.80;;;;;;5092016;28;20069;-60
2021/10/04 05:28:05;;;;;;;0.75;0.75;;;17.40;88.70;;;;;;5092733;28;20048;-59
2021/10/04 05:30:31;;;;;;;0.75;0.45;;;17.40;88.80;;;;;;5093023;28;20042;-59
2021/10/04 05:32:56;;;;;;;1.10;0.40;;;17.40;88.70;;;;;;5092397;28;20401;-60
2021/10/04 05:35:22;;;;;;;0.70;0.40;;;17.40;88.70;;;;;;5092319;28;20043;-54
2021/10/04 05:37:49;;;;;;;0.90;0.60;;;17.50;88.70;;;;;;5092134;28;20089;-59
2021/10/04 05:40:15;;;;;;;0.40;0.40;;;17.40;88.60;;;;;;5090501;28;20048;-59
2021/10/04 05:42:41;;;;;;;0.65;0.65;;;17.40;88.60;;;;;;5090669;28;20051;-57
2021/10/04 05:45:10;;;;;;;0.73;0.50;;;17.40;88.60;;;;;;5091155;28;20046;-56
2021/10/04 05:47:36;;;;;;;1.48;0.65;;;17.40;88.70;;;;;;5091593;28;20059;-59
2021/10/04 05:50:04;;;;;;;0.65;0.50;;;17.40;88.70;;;;;;5092465;28;20054;-57
2021/10/04 05:52:30;;;;;;;0.40;0.40;;;17.40;88.70;;;;;;5092266;28;20100;-56
2021/10/04 05:54:55;;;;;;;0.40;0.40;;;17.40;88.70;;;;;;5090683;28;20115;-59
2021/10/04 05:57:21;;;;;;;0.80;0.70;;;17.40;88.60;;;;;;5091712;28;20031;-57
2021/10/04 05:59:47;;;;;;;0.88;0.50;;;17.40;88.60;;;;;;5092053;28;20345;-58
2021/10/04 06:02:13;;;;;;;0.80;0.57;;;17.50;88.70;;;;;;5090719;28;20051;-58
2021/10/04 06:04:39;;;;;;;0.82;0.55;;;17.30;88.50;;;;;;5091583;28;20052;-58
2021/10/04 06:07:04;;;;;;;0.50;0.50;;;17.40;88.60;;;;;;5091367;28;20055;-59
2021/10/04 06:09:30;;;;;;;0.60;0.60;;;17.40;88.50;;;;;;5091830;28;20040;-58
2021/10/04 06:11:56;;;;;;;0.50;0.40;;;17.40;88.50;;;;;;5090539;28;20146;-57
2021/10/04 06:14:21;;;;;;;0.60;0.55;;;17.40;88.50;;;;;;5091363;28;20043;-57
2021/10/04 06:16:47;;;;;;;0.63;0.63;;;17.40;88.30;;;;;;5091945;28;20044;-57
2021/10/04 06:19:13;;;;;;;0.50;0.40;;;17.40;88.40;;;;;;5091414;28;20032;-57
2021/10/04 06:21:39;;;;;;;0.50;0.50;;;17.40;88.20;;;;;;5092195;28;20067;-59
2021/10/04 06:24:05;;;;;;;1.50;0.70;;;17.40;88.20;;;;;;5091726;28;20504;-57
2021/10/04 06:26:31;;;;;;;0.73;0.50;;;17.40;88.30;;;;;;5092140;28;20048;-57
2021/10/04 06:28:57;;;;;;;1.25;0.70;;;17.40;88.20;;;;;;5091208;28;20132;-58
2021/10/04 06:31:25;;;;;;;0.50;0.50;;;17.40;88.10;;;;;;5092541;28;20119;-57
2021/10/04 06:33:51;;;;;;;0.73;0.63;;;17.40;88.10;;;;;;5091411;28;20032;-58
2021/10/04 06:36:16;;;;;;;0.60;0.47;;;17.40;88.20;;;;;;5091777;28;20131;-57
2021/10/04 06:38:42;;;;;;;0.63;0.63;;;17.40;88.10;;;;;;5091428;28;20075;-55
2021/10/04 06:41:07;;;;;;;0.85;0.50;;;17.40;88.10;;;;;;5091689;28;20036;-60
2021/10/04 06:43:33;;;;;;;0.55;0.55;;;17.40;88.10;;;;;;5091871;28;20055;-60
2021/10/04 06:45:59;;;;;;;0.98;0.70;;;17.40;88.10;;;;;;5090301;28;20044;-58
2021/10/04 06:48:24;;;;;;;0.70;0.60;;;17.40;88.10;;;;;;5091267;28;20036;-59
2021/10/04 06:50:51;;;;;;;0.40;0.40;;;17.40;88.10;;;;;;5091145;28;20048;-59
2021/10/04 06:53:16;;;;;;;0.75;0.52;;;17.40;88.10;;;;;;5091882;28;20086;-58
2021/10/04 06:55:45;;;;;;;0.50;0.47;;;17.40;88.00;;;;;;5095837;28;20068;-60
2021/10/04 06:58:11;;;;;;;0.85;0.47;;;17.40;88.00;;;;;;5095596;28;20434;-60
2021/10/04 07:00:37;;;;;;;0.50;0.40;;;17.40;88.10;;;;;;5094817;28;20036;-60
2021/10/04 07:03:02;;;;;;;0.77;0.50;;;17.40;88.00;;;;;;5095907;28;20495;-60
2021/10/04 07:05:29;;;;;;;0.40;0.40;;;17.40;88.00;;;;;;5095371;28;20422;-60
2021/10/04 07:07:56;;;;;;;0.82;0.50;;;17.40;88.00;;;;;;5095559;28;20048;-61
2021/10/04 07:10:23;;;;;;;0.77;0.47;;;17.30;87.80;;;;;;5093903;28;20052;-61
2021/10/04 07:12:49;;;;;;;0.43;0.40;;;17.40;87.90;;;;;;5095819;28;20089;-60
2021/10/04 07:15:15;;;;;;;0.40;0.40;;;17.40;87.90;;;;;;5095598;28;20040;-60
2021/10/04 07:17:41;;;;;;;0.50;0.50;;;17.40;88.70;;;;;;5095241;28;20051;-60
2021/10/04 07:20:07;;;;;;;0.50;0.45;;;17.40;87.90;;;;;;5095077;28;20044;-60
2021/10/04 07:22:33;;;;;;;0.85;0.57;;;17.40;88.00;;;;;;5094928;28;20051;-58
2021/10/04 07:24:59;;;;;;;0.57;0.57;;;17.40;88.00;;;;;;5094894;28;20052;-59
2021/10/04 07:27:25;;;;;;;0.82;0.50;;;17.40;87.80;;;;;;5094686;28;20122;-60
2021/10/04 07:29:51;;;;;;;0.80;0.60;;;17.30;87.70;;;;;;5095028;28;20043;-60
2021/10/04 07:32:16;;;;;;;0.50;0.43;;;17.40;87.80;;;;;;5094238;28;20147;-59
2021/10/04 07:34:42;;;;;;;0.40;0.40;;;17.40;87.80;;;;;;5094575;28;20040;-60
2021/10/04 07:37:08;;;;;;;0.50;0.50;;;17.40;87.80;;;;;;5094364;28;20050;-59
2021/10/04 07:39:34;;;;;;;1.58;0.57;;;17.30;87.70;;;;;;5094770;28;20067;-56
2021/10/04 07:42:00;;;;;;;0.90;0.63;;;17.40;87.70;;;;;;5095327;28;20042;-59
2021/10/04 07:44:26;;;;;;;0.68;0.47;;;17.40;87.70;;;;;;5094743;28;20131;-57
2021/10/04 07:46:53;;;;;;;0.60;0.60;;;17.40;88.30;;;;;;5094876;28;20122;-57
2021/10/04 07:49:19;;;;;;;0.50;0.50;;;17.40;87.60;;;;;;5094414;28;20400;-57
2021/10/04 07:51:45;;;;;;;0.60;0.60;;;17.40;87.70;;;;;;5094437;28;20040;-59
2021/10/04 07:54:11;;;;;;;0.50;0.50;;;17.40;87.60;;;;;;5094740;28;20128;-59
2021/10/04 07:56:39;;;;;;;0.93;0.63;;;17.40;87.60;;;;;;5094596;28;20111;-52
2021/10/04 07:59:07;;;;;;;0.95;0.68;;;17.40;87.70;;;;;;5094302;28;20073;-57
2021/10/04 08:01:34;;;;;;;0.60;0.50;;;17.30;87.60;;;;;;5093260;28;20135;-59
2021/10/04 08:03:59;;;;;;;0.50;0.50;;;17.40;87.70;;;;;;5093690;28;20040;-61
2021/10/04 08:06:28;;;;;;;0.68;0.52;;;17.40;87.70;;;;;;5091815;28;20073;-61
2021/10/04 08:08:54;;;;;;;1.15;0.65;;;17.40;87.70;;;;;;5092514;28;20055;-57
2021/10/04 08:11:20;;;;;;;0.82;0.57;;;17.40;87.80;;;;;;5094216;28;20576;-58
2021/10/04 08:13:49;;;;;;;0.70;0.50;;;17.40;87.70;;;;;;5093816;28;20078;-58
2021/10/04 08:16:15;;;;;;;0.90;0.65;;;17.40;87.70;;;;;;5092865;28;20047;-56
2021/10/04 08:18:40;;;;;;;0.60;0.50;;;17.40;87.70;;;;;;5093695;28;20047;-56
2021/10/04 08:21:06;;;;;;;0.40;0.32;;;17.40;87.60;;;;;;5093854;28;20066;-57
2021/10/04 08:23:32;;;;;;;0.30;0.30;;;17.30;87.50;;;;;;5092332;28;20092;-58
2021/10/04 08:25:58;;;;;;;1.27;0.57;;;17.40;87.70;;;;;;5094120;28;20055;-57
2021/10/04 08:28:23;;;;;;;0.57;0.57;;;17.40;87.70;;;;;;5094010;28;20048;-56
2021/10/04 08:30:49;;;;;;;0.50;0.50;;;17.30;87.70;;;;;;5093819;28;20404;-58
2021/10/04 08:33:15;;;;;;;0.55;0.50;;;17.40;87.70;;;;;;5093653;28;20039;-56
2021/10/04 08:35:40;;;;;;;0.43;0.43;;;17.30;87.60;;;;;;5093239;28;20031;-57
2021/10/04 08:38:06;;;;;;;0.63;0.50;;;17.40;87.70;;;;;;5093365;28;20445;-57
2021/10/04 08:40:32;;;;;;;1.10;0.50;;;17.40;87.70;;;;;;5093926;28;20036;-57
2021/10/04 08:42:58;;;;;;;0.52;0.50;;;17.40;87.80;;;;;;5094167;28;20040;-57
2021/10/04 08:45:28;;;;;;;0.30;0.30;;;17.40;87.70;;;;;;5093504;28;20051;-56
2021/10/04 08:47:59;;;;;;;0.82;0.50;;;17.40;87.70;;;;;;5093206;28;20148;-57
2021/10/04 08:50:31;;;;;;;0.98;0.40;;;17.40;87.70;;;;;;5093010;28;20101;-57
2021/10/04 08:52:58;;;;;;;0.65;0.50;;;17.40;87.70;;;;;;5094059;28;20048;-57
2021/10/04 08:55:25;;;;;;;0.93;0.60;;;17.30;87.70;;;;;;5091953;28;20093;-58
2021/10/04 08:57:50;;;;;;;0.90;0.70;;;17.30;87.60;;;;;;5093336;28;20035;-57
2021/10/04 09:00:17;;;;;;;1.40;0.50;;;17.40;87.60;;;;;;5093602;28;20457;-54
2021/10/04 09:02:43;;;;;;;0.75;0.75;;;17.40;87.70;;;;;;5093155;28;20043;-56
2021/10/04 09:05:14;;;;;;;0.43;0.43;;;17.40;87.60;;;;;;5089477;28;20097;-54
2021/10/04 09:07:53;;;;;;;0.40;0.40;;;17.30;87.60;;;;;;5074263;28;20052;-51
2021/10/04 09:10:27;;;;;;;0.50;0.47;;;17.40;87.70;;;;;;5091377;28;20424;-54
2021/10/04 09:13:03;;;;;;;0.73;0.50;;;17.40;87.80;;;;;;5088371;28;20048;-54
2021/10/04 09:15:35;;;;;;;0.40;0.40;;;17.40;87.80;;;;;;5088857;28;20409;-54
2021/10/04 09:18:09;;;;;;;0.60;0.57;;;17.40;87.90;;;;;;5088471;28;20051;-52
2021/10/04 09:20:56;;;;;;;0.32;0.32;;;17.40;87.90;;;;;;5088818;28;20095;-55
2021/10/04 09:23:44;;;;;;;0.43;0.43;;;17.40;87.80;;;;;;5087941;28;20508;-52
2021/10/04 09:26:31;;;;;;;1.45;0.63;;;17.40;87.90;;;;;;5088723;28;20055;-55
2021/10/04 09:29:00;;;;;;;0.47;0.35;;;17.40;88.00;;;;;;5080603;28;20048;-52
2021/10/04 09:31:29;;;;;;;0.68;0.57;;;17.40;88.00;;;;;;5088796;28;20040;-54
2021/10/04 09:34:09;;;;;;;0.50;0.50;;;17.40;88.10;;;;;;5088439;28;20043;-55
2021/10/04 09:36:40;;;;;;;0.50;0.50;;;17.40;88.10;;;;;;5088096;28;20411;-53
2021/10/04 09:39:24;;;;;;;0.63;0.40;;;17.40;88.20;;;;;;5087521;28;20769;-55
2021/10/04 09:42:17;;;;;;;0.50;0.50;;;17.40;88.10;;;;;;5088680;28;20055;-54
2021/10/04 09:44:55;;;;;;;0.75;0.60;;;17.40;88.10;;;;;;5088500;28;20456;-46
2021/10/04 09:47:28;;;;;;;0.43;0.43;;;17.40;88.30;;;;;;5090465;28;20484;-57
2021/10/04 09:50:02;;;;;;;0.55;0.47;;;17.40;88.40;;;;;;5077715;28;20872;-56
2021/10/04 09:52:52;;;;;;;0.90;0.60;;;17.40;88.50;;;;;;5092582;28;20032;-55
2021/10/04 09:55:28;;;;;;;0.50;0.50;;;17.40;88.30;;;;;;5091818;28;20052;-53
2021/10/04 09:58:14;;;;;;;0.47;0.47;;;17.40;88.50;;;;;;5091813;28;20044;-51
2021/10/04 10:00:42;;;;;;;0.40;0.40;;;17.40;88.50;;;;;;5091485;28;20445;-50
2021/10/04 10:03:09;;;;;;;0.50;0.50;;;17.40;88.50;;;;;;5092185;28;20043;-50
2021/10/04 10:05:38;;;;;;;1.60;0.60;;;17.40;88.50;;;;;;5091980;28;20396;-54
2021/10/04 10:08:06;;;;;;;0.30;0.30;;;17.40;88.50;;;;;;5091863;28;20515;-53
2021/10/04 10:10:32;;;;;;;0.50;0.50;;;17.40;88.50;;;;;;5091656;28;20048;-50
2021/10/04 10:12:58;;;;;;;0.40;0.40;;;17.40;89.20;;;;;;5091980;28;20085;-49
2021/10/04 10:15:34;;;;;;;0.40;0.40;;;17.40;88.60;;;;;;5091742;28;20797;-56
2021/10/04 10:18:09;;;;;;;;;;;17.40;88.50;;;;;;5092035;28;20424;-56
2021/10/04 10:20:36;;;;;;;0.40;0.40;;;17.40;88.40;;;;;;5091979;28;19974;-56
2021/10/04 10:23:02;;;;;;;0.50;0.50;;;17.40;88.60;;;;;;5091305;28;20075;-56
2021/10/04 10:25:32;;;;;;;0.52;0.50;;;17.40;88.70;;;;;;5091467;28;20395;-55
2021/10/04 10:27:58;;;;;;;0.40;0.40;;;17.40;88.70;;;;;;5090366;28;20105;-54
2021/10/04 10:30:26;;;;;;;0.40;0.40;;;17.40;88.70;;;;;;5091738;28;20044;-51
2021/10/04 10:32:53;;;;;;;0.32;0.32;;;17.40;88.80;;;;;;5091844;28;20036;-57
2021/10/04 10:35:46;;;;;;;1.08;0.47;;;17.40;88.80;;;;;;5092131;28;20158;-49
2021/10/04 10:38:11;;;;;;;0.75;0.40;;;17.40;88.60;;;;;;5091520;28;20048;-56
2021/10/04 10:40:37;;;;;;;0.30;0.30;;;17.30;88.70;;;;;;5091364;28;20112;-60
2021/10/04 10:43:06;;;;;;;0.60;0.47;;;17.40;88.70;;;;;;5091859;28;20129;-53
2021/10/04 10:45:42;;;;;;;0.63;0.63;;;17.40;88.70;;;;;;5091943;28;20051;-57
2021/10/04 10:48:09;;;;;;;0.40;0.40;;;17.40;88.70;;;;;;5083129;28;20093;-60
2021/10/04 10:50:36;;;;;;;0.60;0.50;;;17.40;88.70;;;;;;5084784;28;20071;-55
2021/10/04 10:53:08;;;;;;;0.82;0.55;;;17.40;88.70;;;;;;5091267;28;20063;-56
2021/10/04 10:55:40;;;;;;;0.70;0.45;;;17.40;88.70;;;;;;5090170;28;20101;-56
2021/10/04 10:58:12;;;;;;;0.57;0.40;;;17.40;88.70;;;;;;5090824;28;20052;-56
2021/10/04 11:00:51;;;;;;;1.08;0.70;;;17.40;88.70;;;;;;5090927;28;20051;-53
2021/10/04 11:03:20;;;;;;;0.40;0.40;;;17.50;88.60;;;;;;5091248;28;20044;-54
2021/10/04 11:06:01;;;;;;;0.60;0.60;;;17.40;88.70;;;;;;5089696;28;20052;-48
2021/10/04 11:08:29;;;;;;;1.05;0.50;;;17.40;88.50;;;;;;5089436;28;20531;-55
2021/10/04 11:10:58;;;;;;;0.90;0.40;;;17.40;88.60;;;;;;5090629;28;20040;-53
2021/10/04 11:13:26;;;;;;;0.65;0.60;;;17.40;88.60;;;;;;5090644;28;20121;-55
2021/10/04 11:15:54;;;;;;;0.45;0.40;;;17.40;88.50;;;;;;5090718;28;20044;-55
2021/10/04 11:18:21;;;;;;;0.30;0.30;;;17.50;88.50;;;;;;5090642;28;20040;-51
2021/10/04 11:20:47;;;;;;;0.47;0.43;;;17.50;88.50;;;;;;5088446;28;20036;-54
2021/10/04 11:23:19;;;;;;;0.50;0.50;;;17.40;88.50;;;;;;5090903;28;20059;-52
2021/10/04 11:25:44;;;;;;;0.40;0.40;;;17.50;88.50;;;;;;5090886;28;20070;-51
2021/10/04 11:28:13;;;;;;;0.43;0.43;;;17.40;88.50;;;;;;5090217;28;20559;-54
2021/10/04 11:31:05;;;;;;;1.20;0.50;;;17.40;88.50;;;;;;5089286;28;20060;-53
2021/10/04 11:33:33;;;;;;;1.13;0.60;;;17.50;88.50;;;;;;5090926;28;20484;-51
2021/10/04 11:36:04;;;;;;;0.90;0.60;;;17.40;88.80;;;;;;5090415;28;20133;-54
2021/10/04 11:38:34;;;;;;;1.75;0.60;;;17.40;88.90;;;;;;5090695;28;20464;-59
2021/10/04 11:41:00;;;;;;;0.52;0.50;;;17.50;89.10;;;;;;5092819;28;20080;-56
2021/10/04 11:43:30;;;;;;;1.10;0.40;;;17.50;89.20;;;;;;5093758;28;20055;-59
2021/10/04 11:45:57;;;;;;;0.43;0.43;;;17.50;89.30;;;;;;5093330;28;20044;-60
2021/10/04 11:48:30;;;;;;;1.17;0.60;;;17.50;89.40;;;;;;5094238;28;20116;-60
2021/10/04 11:50:57;;;;;;;0.88;0.50;;;17.50;89.50;;;;;;5093852;28;20040;-58
2021/10/04 11:53:23;;;;;;;0.52;0.50;;;17.50;89.60;;;;;;5088743;28;20052;-54
2021/10/04 11:56:06;;;;;;;0.40;0.40;;;17.50;89.60;;;;;;5083577;28;20113;-59
2021/10/04 11:58:46;;;;;;;0.85;0.50;;;17.50;89.50;;;;;;5094046;28;20047;-58
2021/10/04 12:01:11;;;;;;;0.70;0.45;;;17.50;89.80;;;;;;5093886;28;20376;-60
2021/10/04 12:03:39;;;;;;;0.40;0.40;;;17.50;89.80;;;;;;5093887;28;20040;-50
2021/10/04 12:06:06;;;;;;;0.45;0.40;;;17.50;89.80;;;;;;5094149;28;20454;-55
2021/10/04 12:08:39;;;;;;;0.82;0.50;;;17.50;89.80;;;;;;5093152;28;20051;-56
2021/10/04 12:11:09;;;;;;;1.02;0.70;;;17.50;89.80;;;;;;5094587;28;20036;-57
2021/10/04 12:13:39;;;;;;;0.55;0.50;;;17.50;89.80;;;;;;5094366;28;20385;-57
2021/10/04 12:16:11;;;;;;;1.30;0.63;;;17.50;89.80;;;;;;5094161;28;20329;-54
2021/10/04 12:18:46;;;;;;;1.27;0.80;;;17.50;89.80;;;;;;5092908;28;20119;-58
2021/10/04 12:21:21;;;;;;;0.40;0.40;;;17.50;90.20;;;;;;5094185;28;20041;-56
2021/10/04 12:24:10;;;;;;;1.50;0.50;;;17.50;89.80;;;;;;5094079;28;20048;-56
2021/10/04 12:27:09;;;;;;;1.00;0.63;;;17.50;89.60;;;;;;5094358;28;20040;-57
2021/10/04 12:29:46;;;;;;;0.63;0.50;;;17.50;89.60;;;;;;5085889;28;20048;-59
2021/10/04 12:32:21;;;;;;;0.85;0.50;;;17.50;89.80;;;;;;5093899;28;20083;-57
2021/10/04 12:35:22;;;;;;;0.52;0.40;;;17.50;89.80;;;;;;5094058;28;20090;-56
2021/10/04 12:37:56;;;;;;;0.70;0.50;;;17.50;89.50;;;;;;5094095;28;20092;-59
2021/10/04 12:40:45;;;;;;;0.68;0.50;;;17.50;89.60;;;;;;5094029;28;20044;-58
2021/10/04 12:43:21;;;;;;;0.63;0.50;;;17.50;89.60;;;;;;5094016;28;20127;-56
2021/10/04 12:46:10;;;;;;;0.52;0.50;;;17.50;89.60;;;;;;5094036;28;20076;-57
2021/10/04 12:48:45;;;;;;;0.73;0.70;;;17.50;89.50;;;;;;5091662;28;20040;-58
2021/10/04 12:51:13;;;;;;;1.02;0.40;;;17.50;89.50;;;;;;5093613;28;20093;-57
2021/10/04 12:53:48;;;;;;;0.40;0.38;;;17.50;89.50;;;;;;5093757;28;20462;-57